createdAt,value
2024-01-25T00:03:04.798Z,75.86
2024-01-25T00:07:10.141Z,77.79
2024-01-25T00:11:11.765Z,79.04
2024-01-25T00:15:14.092Z,77.67
2024-01-25T00:19:15.682Z,76.19
2024-01-25T00:23:17.311Z,77.71
2024-01-25T00:27:18.808Z,75.39
2024-01-25T00:31:20.470Z,77.33
2024-01-25T00:35:22.419Z,75.67
2024-01-25T00:39:24.492Z,76.00
2024-01-25T00:43:26.410Z,75.17
2024-01-25T00:47:28.299Z,75.25
2024-01-25T00:51:30.238Z,74.23
2024-01-25T00:55:32.203Z,75.46
2024-01-25T00:59:36.313Z,74.51
2024-01-25T01:03:38.541Z,73.05
2024-01-25T01:07:43.934Z,73.70
2024-01-25T01:11:45.707Z,72.32
2024-01-25T01:15:47.543Z,75.08
2024-01-25T01:19:49.132Z,72.17
2024-01-25T01:23:52.490Z,72.79
2024-01-25T01:27:54.137Z,71.41
2024-01-25T01:31:55.651Z,74.05
2024-01-25T01:35:57.212Z,74.49
2024-01-25T01:40:00.099Z,75.79
2024-01-25T01:44:02.466Z,75.08
2024-01-25T01:48:04.906Z,76.25
2024-01-25T01:52:08.099Z,73.82
2024-01-25T01:56:10.910Z,74.58
2024-01-25T02:00:15.817Z,74.28
2024-01-25T02:04:17.417Z,73.71
2024-01-25T02:08:19.063Z,73.67
2024-01-25T02:12:20.852Z,74.29
2024-01-25T02:16:22.526Z,70.98
2024-01-25T02:20:24.246Z,74.88
2024-01-25T02:24:25.709Z,72.00
2024-01-25T02:28:27.264Z,70.86
2024-01-25T02:32:28.882Z,71.56
2024-01-25T02:36:30.527Z,72.17
2024-01-25T02:40:32.069Z,73.11
2024-01-25T02:44:33.677Z,73.25
2024-01-25T02:48:36.047Z,72.45
2024-01-25T02:52:37.651Z,71.96
2024-01-25T02:56:39.170Z,72.26
2024-01-25T03:00:40.773Z,71.80
2024-01-25T03:04:42.449Z,71.93
2024-01-25T03:08:44.002Z,70.69
2024-01-25T03:12:45.925Z,72.37
2024-01-25T03:16:47.470Z,69.94
2024-01-25T03:20:51.924Z,70.32
2024-01-25T03:24:53.890Z,70.73
2024-01-25T03:28:55.468Z,72.58
2024-01-25T03:32:57.088Z,70.58
2024-01-25T03:36:58.572Z,70.57
2024-01-25T03:41:00.228Z,72.05
2024-01-25T03:45:01.714Z,69.05
2024-01-25T03:49:03.408Z,71.04
2024-01-25T03:53:07.311Z,70.74
2024-01-25T03:57:08.860Z,72.39
2024-01-25T04:01:10.546Z,70.04
2024-01-25T04:05:12.291Z,72.09
2024-01-25T04:09:14.504Z,71.11
2024-01-25T04:13:16.193Z,73.24
2024-01-25T04:17:17.722Z,73.12
2024-01-25T04:21:19.454Z,72.28
2024-01-25T04:25:21.058Z,69.54
2024-01-25T04:29:22.764Z,72.27
2024-01-25T04:33:24.753Z,71.93
2024-01-25T04:37:26.318Z,72.77
2024-01-25T04:41:27.806Z,72.57
2024-01-25T04:45:29.338Z,73.18
2024-01-25T04:49:31.254Z,73.60
2024-01-25T04:53:33.068Z,73.34
2024-01-25T04:57:34.562Z,72.41
2024-01-25T05:01:36.217Z,73.02
2024-01-25T05:05:37.785Z,73.84
2024-01-25T05:09:39.349Z,73.65
2024-01-25T05:13:40.837Z,73.99
2024-01-25T05:17:42.441Z,74.27
2024-01-25T05:21:45.177Z,74.21
2024-01-25T05:25:46.815Z,76.10
2024-01-25T05:29:48.320Z,75.24
2024-01-25T05:33:49.934Z,74.52
2024-01-25T05:37:52.005Z,73.35
2024-01-25T05:41:53.505Z,76.35
2024-01-25T05:45:55.194Z,74.78
2024-01-25T05:49:58.609Z,75.91
2024-01-25T05:54:00.160Z,75.40
2024-01-25T05:58:01.694Z,74.71
2024-01-25T06:02:03.797Z,76.54
2024-01-25T06:06:06.489Z,74.81
2024-01-25T06:10:08.856Z,73.17
2024-01-25T06:14:10.840Z,73.49
2024-01-25T06:18:12.455Z,74.55
2024-01-25T06:22:14.113Z,75.81
2024-01-25T06:26:15.697Z,71.56
2024-01-25T06:30:17.627Z,74.13
2024-01-25T06:34:19.299Z,71.81
2024-01-25T06:38:20.869Z,72.91
2024-01-25T06:42:22.950Z,73.84
2024-01-25T06:46:24.675Z,71.50
2024-01-25T06:50:26.426Z,73.16
2024-01-25T06:54:28.256Z,71.12
2024-01-25T06:58:31.861Z,71.02
2024-01-25T07:02:34.126Z,71.55
2024-01-25T07:06:36.610Z,71.90
2024-01-25T07:10:38.637Z,73.22
2024-01-25T07:14:40.215Z,69.82
2024-01-25T07:18:45.632Z,75.39
2024-01-25T07:22:47.245Z,74.09
2024-01-25T07:26:48.987Z,70.49
2024-01-25T07:30:51.234Z,76.50
2024-01-25T07:34:54.477Z,71.26
2024-01-25T07:38:56.075Z,71.68
2024-01-25T07:42:57.623Z,71.38
2024-01-25T07:46:59.107Z,77.07
2024-01-25T07:51:00.925Z,75.38
2024-01-25T07:55:04.469Z,74.42
2024-01-25T07:59:07.310Z,72.53
2024-01-25T08:03:11.844Z,74.35
2024-01-25T08:07:13.694Z,75.31
2024-01-25T08:11:19.620Z,74.83
2024-01-25T08:15:21.325Z,76.91
2024-01-25T08:19:23.040Z,73.65
2024-01-25T08:23:24.579Z,73.70
2024-01-25T08:27:26.311Z,75.54
2024-01-25T08:31:27.969Z,75.37
2024-01-25T08:35:29.876Z,76.27
2024-01-25T08:39:31.452Z,72.50
2024-01-25T08:43:33.361Z,71.15
2024-01-25T08:47:34.952Z,73.75
2024-01-25T08:51:37.484Z,74.05
2024-01-25T08:55:39.105Z,75.00
2024-01-25T08:59:40.642Z,73.19
2024-01-25T09:03:42.816Z,72.11
2024-01-25T09:07:44.775Z,71.89
2024-01-25T09:11:46.355Z,72.83
2024-01-25T09:15:48.272Z,70.09
2024-01-25T09:19:53.587Z,70.68
2024-01-25T09:23:55.338Z,69.76
2024-01-25T09:27:58.491Z,69.08
2024-01-25T09:32:00.317Z,71.41
2024-01-25T09:36:01.983Z,73.30
2024-01-25T09:40:05.433Z,76.36
2024-01-25T09:44:10.734Z,74.51
2024-01-25T09:48:13.097Z,75.45
2024-01-25T09:52:17.444Z,74.51
2024-01-25T09:56:21.764Z,77.03
2024-01-25T10:00:23.997Z,73.04
2024-01-25T10:04:26.424Z,75.01
2024-01-25T10:08:28.028Z,75.44
2024-01-25T10:12:29.531Z,77.41
2024-01-25T10:16:31.467Z,75.87
2024-01-25T10:20:33.509Z,73.15
2024-01-25T10:24:35.976Z,74.54
2024-01-25T10:28:37.973Z,73.75
2024-01-25T10:32:41.346Z,73.26
2024-01-25T10:36:44.217Z,71.94
2024-01-25T10:40:49.407Z,73.01
2024-01-25T10:44:52.465Z,74.27
2024-01-25T10:48:58.493Z,74.94
2024-01-25T10:53:01.915Z,72.57
2024-01-25T10:57:06.164Z,74.33
2024-01-25T11:01:15.475Z,73.49
2024-01-25T11:05:20.239Z,74.54
2024-01-25T11:09:22.789Z,74.40
2024-01-25T11:13:27.374Z,71.86
2024-01-25T11:17:34.556Z,71.20
2024-01-25T11:21:47.334Z,69.24
2024-01-25T11:25:49.474Z,71.17
2024-01-25T11:29:51.042Z,69.33
2024-01-25T11:33:53.200Z,69.90
2024-01-25T11:37:54.860Z,68.60
2024-01-25T11:41:56.448Z,65.35
2024-01-25T11:45:58.058Z,66.47
2024-01-25T11:49:59.966Z,66.29
2024-01-25T11:54:01.663Z,65.50
2024-01-25T11:58:03.555Z,66.75
2024-01-25T12:02:05.508Z,64.38
2024-01-25T12:06:10.406Z,67.18
2024-01-25T12:10:20.552Z,63.06
2024-01-25T12:14:22.124Z,61.43
2024-01-25T12:18:23.811Z,61.12
2024-01-25T12:22:28.480Z,61.52
2024-01-25T12:26:35.488Z,62.39
2024-01-25T12:30:37.171Z,63.77
2024-01-25T12:34:40.808Z,61.83
2024-01-25T12:38:42.490Z,62.39
2024-01-25T12:42:44.199Z,64.40
2024-01-25T12:46:45.763Z,65.41
2024-01-25T12:50:47.528Z,65.47
2024-01-25T12:54:49.127Z,64.77
2024-01-25T12:58:50.891Z,64.37
2024-01-25T13:02:55.410Z,65.10
2024-01-25T13:06:57.200Z,65.40
2024-01-25T13:10:58.723Z,65.81
2024-01-25T13:15:00.830Z,65.37
2024-01-25T13:19:02.877Z,66.85
2024-01-25T13:23:04.686Z,64.53
2024-01-25T13:27:06.569Z,65.50
2024-01-25T13:31:08.166Z,66.81
2024-01-25T13:35:15.398Z,66.90
2024-01-25T13:39:16.939Z,68.39
2024-01-25T13:43:19.530Z,69.34
2024-01-25T13:47:21.203Z,67.56
2024-01-25T13:51:23.068Z,66.62
2024-01-25T13:55:24.714Z,67.41
2024-01-25T13:59:26.840Z,68.25
2024-01-25T14:03:28.511Z,71.09
2024-01-25T14:07:30.043Z,68.86
2024-01-25T14:11:32.509Z,69.67
2024-01-25T14:15:34.444Z,68.59
2024-01-25T14:19:37.164Z,70.23
2024-01-25T14:23:38.874Z,69.13
2024-01-25T14:27:40.900Z,71.76
2024-01-25T14:31:42.772Z,69.35
2024-01-25T14:35:44.790Z,71.30
2024-01-25T14:39:56.597Z,71.69
2024-01-25T14:44:08.626Z,72.25
2024-01-25T14:48:10.130Z,70.62
2024-01-25T14:52:11.612Z,71.16
2024-01-25T14:56:13.816Z,69.32
2024-01-25T15:00:20.599Z,71.32
2024-01-25T15:04:22.222Z,73.84
2024-01-25T15:08:23.691Z,69.24
2024-01-25T15:12:25.246Z,69.95
2024-01-25T15:16:26.700Z,72.74
2024-01-25T15:20:29.444Z,72.86
2024-01-25T15:24:33.068Z,72.34
2024-01-25T15:28:36.227Z,72.85
2024-01-25T15:32:39.489Z,74.54
2024-01-25T15:36:44.877Z,74.71
2024-01-25T15:40:47.321Z,72.43
2024-01-25T15:44:48.819Z,72.69
2024-01-25T15:48:52.840Z,73.95
2024-01-25T15:52:57.536Z,71.79
2024-01-25T15:57:01.713Z,71.81
2024-01-25T16:01:03.560Z,74.61
2024-01-25T16:05:11.123Z,71.21
2024-01-25T16:09:13.288Z,72.80
2024-01-25T16:13:15.116Z,71.09
2024-01-25T16:17:16.707Z,70.25
2024-01-25T16:21:21.264Z,70.98
2024-01-25T16:25:23.636Z,75.74
2024-01-25T16:29:25.339Z,74.69
2024-01-25T16:33:28.072Z,73.18
2024-01-25T16:37:29.786Z,75.44
2024-01-25T16:41:31.713Z,74.15
2024-01-25T16:45:35.051Z,75.74
2024-01-25T16:49:39.030Z,75.36
2024-01-25T16:53:40.835Z,76.21
2024-01-25T16:57:42.493Z,74.82
2024-01-25T17:01:44.314Z,72.66
2024-01-25T17:05:49.493Z,75.20
2024-01-25T17:09:53.080Z,77.20
2024-01-25T17:13:55.057Z,77.75
2024-01-25T17:17:56.790Z,73.89
2024-01-25T17:21:58.798Z,73.78
2024-01-25T17:26:00.765Z,78.91
2024-01-25T17:30:05.242Z,75.99
2024-01-25T17:34:07.282Z,75.50
2024-01-25T17:38:09.468Z,79.79
2024-01-25T17:42:11.361Z,76.76
2024-01-25T17:46:13.870Z,75.54
2024-01-25T17:50:16.026Z,74.20
2024-01-25T17:54:18.151Z,75.61
2024-01-25T17:58:19.714Z,75.57
2024-01-25T18:02:21.319Z,78.78
2024-01-25T18:06:22.933Z,79.76
2024-01-25T18:10:24.773Z,77.47
2024-01-25T18:14:26.289Z,81.29
2024-01-25T18:18:27.808Z,76.21
2024-01-25T18:22:30.237Z,81.09
2024-01-25T18:26:31.984Z,78.92
2024-01-25T18:30:33.459Z,77.95
2024-01-25T18:34:35.324Z,79.58
2024-01-25T18:38:37.060Z,78.24
2024-01-25T18:42:38.687Z,80.61
2024-01-25T18:46:40.269Z,82.54
2024-01-25T18:50:42.217Z,79.89
2024-01-25T18:54:44.271Z,81.10
2024-01-25T18:58:46.305Z,81.36
2024-01-25T19:02:48.798Z,84.69
2024-01-25T19:06:55.188Z,87.16
2024-01-25T19:10:57.307Z,83.90
2024-01-25T19:15:04.350Z,80.19
2024-01-25T19:19:06.036Z,86.14
2024-01-25T19:23:07.820Z,85.17
2024-01-25T19:27:09.501Z,86.34
2024-01-25T19:31:12.057Z,92.50
2024-01-25T19:35:14.071Z,83.97
2024-01-25T19:39:16.476Z,84.83
2024-01-25T19:43:19.449Z,88.72
2024-01-25T19:47:21.036Z,89.98
2024-01-25T19:51:22.539Z,87.38
2024-01-25T19:55:24.542Z,88.23
2024-01-25T19:59:26.393Z,90.69
2024-01-25T20:03:28.741Z,92.35
2024-01-25T20:07:30.908Z,90.48
2024-01-25T20:11:32.628Z,92.57
2024-01-25T20:15:34.385Z,91.03
2024-01-25T20:19:36.518Z,91.75
2024-01-25T20:23:38.085Z,89.48
2024-01-25T20:27:40.277Z,91.88
2024-01-25T20:31:41.827Z,88.23
2024-01-25T20:35:43.340Z,86.18
2024-01-25T20:39:44.863Z,82.88
2024-01-25T20:43:46.566Z,87.62
2024-01-25T20:47:48.280Z,89.46
2024-01-25T20:51:49.783Z,88.94
2024-01-25T20:55:51.878Z,83.93
2024-01-25T20:59:53.669Z,92.54
2024-01-25T21:03:56.111Z,86.19
2024-01-25T21:07:58.134Z,90.25
2024-01-25T21:11:59.898Z,87.75
2024-01-25T21:16:02.550Z,92.29
2024-01-25T21:20:05.988Z,95.93
2024-01-25T21:24:07.758Z,92.25
2024-01-25T21:28:09.249Z,92.05
2024-01-25T21:32:11.099Z,92.54
2024-01-25T21:36:12.851Z,91.53
2024-01-25T21:40:14.384Z,96.42
2024-01-25T21:44:15.917Z,98.50
2024-01-25T21:48:17.628Z,96.02
2024-01-25T21:52:22.358Z,93.08
2024-01-25T21:56:24.228Z,93.49
2024-01-25T22:00:26.485Z,99.91
2024-01-25T22:04:28.114Z,94.98
2024-01-25T22:08:29.801Z,93.32
2024-01-25T22:12:32.375Z,95.68
2024-01-25T22:16:33.924Z,95.30
2024-01-25T22:20:35.393Z,93.14
2024-01-25T22:24:36.980Z,97.53
2024-01-25T22:28:38.475Z,94.54
2024-01-25T22:32:40.112Z,97.10
2024-01-25T22:36:41.601Z,99.03
2024-01-25T22:40:43.436Z,96.59
2024-01-25T22:44:44.889Z,94.67
2024-01-25T22:48:46.478Z,98.86
2024-01-25T22:52:48.085Z,99.08
2024-01-25T22:56:49.911Z,94.94
2024-01-25T23:00:51.766Z,94.64
2024-01-25T23:04:53.776Z,98.33
2024-01-25T23:08:55.707Z,97.06
2024-01-25T23:12:57.528Z,99.37
2024-01-25T23:16:59.121Z,100.00
2024-01-25T23:21:00.919Z,100.00
2024-01-25T23:25:03.280Z,100.00
2024-01-25T23:29:04.979Z,98.50
2024-01-25T23:33:06.516Z,94.36
2024-01-25T23:37:08.097Z,94.38
2024-01-25T23:41:09.554Z,100.00
2024-01-25T23:45:12.538Z,100.00
2024-01-25T23:49:16.672Z,100.00
2024-01-25T23:53:18.783Z,100.00
2024-01-25T23:57:20.675Z,100.00
